Portada
METAR-TAF:

METAR-TAF

Aeropuertos :

Mauricio, Plaisance, Mauricio

Aeropuerto Internacional Sir Seewoosagur Ramgoolam

latitud: 20-26S, longitud: 057-40E, altitud: 55 m

Observación

El informe se hizo hace 29 minutos, a las 20:00 UTC
Temperatura 26°C
Humedad 79%
Presión 1017 hPa
Visibilidad 10 km o más
Escasas nubes a una altura de 1800 ft

METAR: FIMP 162000Z 07008T 9999 FEW018 26/22 Q1017

Hora: 00:29 (20:29 UTC)

Pronóstico

El informe se hizo hace 3 horas y 14 minutos, a las 17:15 UTC
Pronóstico válido del 16 a las 18 UTC al 18 a las 00 UTC
Viento 5 kt del este
Visibilidad 10 km o más
Escasas nubes a una altura de 1900 ft
Evolucionando progresivamente
del 17 a las 06 UTC al 17 a las 08 UTC
Viento 13 kt del este-noreste
Nubes dispersas a una altura de 1800 ft

TAF: FIMP 161715Z 1618/1800 09005KT 9999 FEW019 BECMG 1706/1708 07013KT SCT018

Observaciones y pronósticos meteorológicos de más de 4000 aeropuertos (mensajes METAR y TAF).

Los puntos amarillos y rojos representan las estaciones disponibles.

Ponga el ratón en el punto deseado para ver el nombre de la estación.

Haga clic para ver las observaciones y los pronósticos meteorológicos.

Para cambiar el mapa : haga clic en los botones verdes con una cruz de color negro para hacer un zoom, en el botón verde con un guión para alejar o en las flechas verdes para mapas adyacentes.


METAR-TAF: